Medford, Massachusetts
Current Conditions -  °F | °C
As of 3:54 PM on Tuesday 21 Oct 2014 (Local Time) from KBOS Reporting Station
Broken Clouds Broken Clouds  
Wind Chill: 57°   Ceiling: 7500
Heat Index: 57°   Visibility: 10mi
Dew Point: 55°   Wind: 6mph
Humidity: 93%   Direction: 100°E
Pressure: 29.91"   Gusts: NA
Location:  42.42°N, 71.11°W
Report Text: KBOS 211954Z 10005KT 10SM FEW018 SCT030 BKN075 14/13 A2991 RMK AO2 RAB08E38 SLP128 P0000 T01390128
Loading
Personal Weather Stations






























Interactive Weather Map
Tropical Storm Tracking
New forecast layout! Learn more

10-Day Weather Forecast

Advertisements
Track Severe Weather on mobile